プーケット の空港の天気 - METARとTAF

プーケット国際空港 ( VTSP / HKT ) - タイ プーケット県
飛行場実況気象(Metar)
観測時間06/26 18:30 ICT (06/26 11:30 UTC)
風向・風速不定 1m/s
視程8000m
天気現象
全天の4割程度の雲 雲底高度 490m
全天の8割程度の雲 雲底高度 3050m
気温26℃
湿度79%
気圧1009hPa
METARVTSP 261130Z VRB01KT 8000 SCT016 BKN100 26/22 Q1009 NOSIG
過去の天気等 Google飛行場航空写真 Wunderground天気予報

過去48時間のMETAR

飛行場予報(TAF)
データがありません